createdAt,value
2018-09-10T00:00:08.958Z,10.83
2018-09-10T00:01:08.958Z,10.79
2018-09-10T00:02:08.940Z,10.92
2018-09-10T00:03:08.932Z,10.85
2018-09-10T00:04:08.921Z,10.75
2018-09-10T00:05:08.913Z,10.9
2018-09-10T00:06:08.906Z,10.87
2018-09-10T00:07:08.640Z,10.87
2018-09-10T00:08:08.628Z,10.84
2018-09-10T00:09:08.876Z,10.87
2018-09-10T00:10:08.606Z,10.87
2018-09-10T00:11:08.860Z,10.85
2018-09-10T00:12:08.847Z,10.9
2018-09-10T00:13:08.838Z,10.87
2018-09-10T00:14:08.575Z,10.8
2018-09-10T00:15:08.576Z,10.92
2018-09-10T00:16:08.816Z,10.83
2018-09-10T00:17:08.547Z,10.9
2018-09-10T00:18:08.540Z,10.83
2018-09-10T00:19:08.534Z,10.9
2018-09-10T00:20:08.779Z,10.9
2018-09-10T00:21:08.508Z,10.87
2018-09-10T00:22:08.756Z,10.91
2018-09-10T00:23:08.753Z,10.9
2018-09-10T00:24:08.483Z,10.92
2018-09-10T00:25:08.225Z,10.88
2018-09-10T00:26:08.714Z,10.88
2018-09-10T00:27:08.452Z,10.87
2018-09-10T00:28:08.699Z,10.85
2018-09-10T00:29:08.436Z,10.9
2018-09-10T00:30:08.677Z,10.85
2018-09-10T00:31:08.671Z,10.85
2018-09-10T00:32:08.664Z,10.91
2018-09-10T00:33:08.655Z,10.92
2018-09-10T00:34:08.385Z,10.91
2018-09-10T00:35:08.373Z,10.84
2018-09-10T00:36:08.623Z,10.91
2018-09-10T00:37:08.613Z,10.87
2018-09-10T00:38:08.600Z,10.91
2018-09-10T00:39:08.334Z,10.9
2018-09-10T00:40:08.586Z,10.9
2018-09-10T00:41:08.318Z,10.8
2018-09-10T00:42:08.313Z,10.79
2018-09-10T00:43:08.556Z,10.85
2018-09-10T00:44:08.549Z,10.83
2018-09-10T00:45:08.335Z,10.79
2018-09-10T00:46:08.272Z,10.85
2018-09-10T00:47:08.516Z,10.85
2018-09-10T00:48:08.518Z,10.76
2018-09-10T00:49:08.499Z,10.87
2018-09-10T00:50:08.234Z,10.87
2018-09-10T00:51:08.224Z,10.87
2018-09-10T00:52:08.471Z,10.83
2018-09-10T00:53:08.477Z,10.79
2018-09-10T00:54:07.938Z,10.79
2018-09-10T00:55:08.440Z,10.79
2018-09-10T00:56:08.435Z,10.84
2018-09-10T00:57:08.163Z,10.83
2018-09-10T00:58:08.413Z,10.75
2018-09-10T00:59:08.149Z,10.73
2018-09-10T01:00:08.397Z,10.75
2018-09-10T01:01:07.875Z,10.66
2018-09-10T01:02:08.120Z,10.72
2018-09-10T01:03:08.108Z,10.61
2018-09-10T01:04:08.110Z,10.65
2018-09-10T01:05:08.348Z,10.69
2018-09-10T01:06:08.089Z,10.66
2018-09-10T01:07:08.068Z,10.66
2018-09-10T01:08:08.323Z,10.69
2018-09-10T01:09:08.316Z,10.66
2018-09-10T01:10:08.041Z,10.65
2018-09-10T01:11:08.034Z,10.65
2018-09-10T01:12:08.027Z,10.69
2018-09-10T01:13:08.010Z,10.69
2018-09-10T01:14:08.257Z,10.63
2018-09-10T01:15:07.996Z,10.69
2018-09-10T01:16:07.987Z,10.65
2018-09-10T01:17:08.002Z,10.61
2018-09-10T01:18:07.984Z,10.69
2018-09-10T01:19:07.960Z,10.65
2018-09-10T01:20:08.207Z,10.69
2018-09-10T01:21:07.940Z,10.7
2018-09-10T01:22:08.186Z,10.66
2018-09-10T01:23:08.181Z,10.61
2018-09-10T01:24:08.187Z,10.67
2018-09-10T01:25:07.645Z,10.65
2018-09-10T01:26:08.150Z,10.75
2018-09-10T01:27:08.139Z,10.66
2018-09-10T01:28:07.874Z,10.73
2018-09-10T01:29:07.602Z,10.66
2018-09-10T01:30:08.107Z,10.75
2018-09-10T01:31:08.096Z,10.79
2018-09-10T01:32:08.101Z,10.83
2018-09-10T01:33:07.567Z,10.77
2018-09-10T01:34:08.071Z,10.72
2018-09-10T01:35:08.069Z,10.79
2018-09-10T01:36:08.058Z,10.67
2018-09-10T01:37:08.038Z,10.75
2018-09-10T01:38:07.774Z,10.67
2018-09-10T01:39:08.026Z,10.72
2018-09-10T01:40:08.014Z,10.63
2018-09-10T01:41:08.003Z,10.63
2018-09-10T01:42:07.992Z,10.73
2018-09-10T01:43:07.989Z,10.63
2018-09-10T01:44:07.719Z,10.51
2018-09-10T01:45:07.708Z,10.54
2018-09-10T01:46:07.953Z,10.54
2018-09-10T01:47:07.946Z,10.46
2018-09-10T01:48:07.935Z,10.47
2018-09-10T01:49:07.667Z,10.44
2018-09-10T01:50:07.924Z,10.44
2018-09-10T01:51:07.904Z,10.35
2018-09-10T01:52:07.641Z,10.38
2018-09-10T01:53:07.889Z,10.39
2018-09-10T01:54:07.625Z,10.31
2018-09-10T01:55:07.611Z,10.28
2018-09-10T01:56:07.864Z,10.32
2018-09-10T01:57:07.849Z,10.32
2018-09-10T01:58:07.844Z,10.33
2018-09-10T01:59:07.828Z,10.26
2018-09-10T02:00:07.821Z,10.31
2018-09-10T02:01:07.811Z,10.26
2018-09-10T02:02:07.802Z,10.23
2018-09-10T02:03:07.789Z,10.26
2018-09-10T02:04:07.778Z,10.25
2018-09-10T02:05:07.515Z,10.18
2018-09-10T02:06:07.512Z,10.13
2018-09-10T02:07:07.751Z,10.17
2018-09-10T02:08:07.743Z,10.13
2018-09-10T02:09:07.482Z,10.1
2018-09-10T02:10:07.478Z,10.11
2018-09-10T02:11:07.714Z,10.05
2018-09-10T02:12:07.443Z,10.05
2018-09-10T02:13:07.696Z,10.14
2018-09-10T02:14:07.172Z,10
2018-09-10T02:15:07.674Z,9.96
2018-09-10T02:16:07.412Z,10
2018-09-10T02:17:07.926Z,10
2018-09-10T02:18:07.133Z,10
2018-09-10T02:19:07.123Z,9.93
2018-09-10T02:20:07.630Z,9.96
2018-09-10T02:21:07.357Z,9.96
2018-09-10T02:22:07.605Z,9.98
2018-09-10T02:23:07.337Z,9.93
2018-09-10T02:24:07.331Z,9.92
2018-09-10T02:25:07.319Z,9.9
2018-09-10T02:26:07.573Z,9.8
2018-09-10T02:27:07.558Z,9.84
2018-09-10T02:28:07.554Z,9.84
2018-09-10T02:29:07.634Z,9.82
2018-09-10T02:30:07.030Z,9.88
2018-09-10T02:31:07.523Z,9.82
2018-09-10T02:32:07.517Z,9.96
2018-09-10T02:33:07.501Z,9.92
2018-09-10T02:34:07.239Z,9.92
2018-09-10T02:35:07.485Z,9.89
2018-09-10T02:36:07.213Z,9.88
2018-09-10T02:37:07.205Z,9.95
2018-09-10T02:38:07.455Z,9.95
2018-09-10T02:39:07.183Z,10.02
2018-09-10T02:40:07.176Z,9.98
2018-09-10T02:41:07.419Z,10.07
2018-09-10T02:42:06.893Z,10.02
2018-09-10T02:43:07.141Z,10.03
2018-09-10T02:44:07.389Z,9.99
2018-09-10T02:45:07.124Z,10.08
2018-09-10T02:46:07.369Z,10.13
2018-09-10T02:47:07.363Z,10.05
2018-09-10T02:48:07.100Z,10.05
2018-09-10T02:49:07.085Z,10.08
2018-09-10T02:50:07.074Z,10.1
2018-09-10T02:51:07.320Z,10.08
2018-09-10T02:52:07.322Z,10.13
2018-09-10T02:53:07.044Z,10.03
2018-09-10T02:54:07.291Z,10.08
2018-09-10T02:55:06.810Z,10.1
2018-09-10T02:56:06.755Z,10.03
2018-09-10T02:57:07.008Z,10.03
2018-09-10T02:58:07.257Z,10.02
2018-09-10T02:59:07.243Z,10.08
2018-09-10T03:00:06.974Z,10
2018-09-10T03:01:07.228Z,10.13
2018-09-10T03:02:06.953Z,10
2018-09-10T03:03:06.942Z,9.96
2018-09-10T03:04:06.933Z,10.05
2018-09-10T03:05:06.675Z,10.15
2018-09-10T03:06:06.661Z,10.02
2018-09-10T03:07:06.907Z,10.03
2018-09-10T03:08:07.155Z,10
2018-09-10T03:09:07.141Z,10.05
2018-09-10T03:10:06.879Z,9.92
2018-09-10T03:11:06.860Z,9.92
2018-09-10T03:12:06.853Z,9.89
2018-09-10T03:13:07.097Z,10.02
2018-09-10T03:14:06.836Z,9.98
2018-09-10T03:15:07.076Z,9.93
2018-09-10T03:16:06.812Z,9.93
2018-09-10T03:17:06.806Z,10.08
2018-09-10T03:18:07.389Z,10.05
2018-09-10T03:19:06.528Z,10.02
2018-09-10T03:20:06.771Z,10.08
2018-09-10T03:21:06.762Z,10.05
2018-09-10T03:22:06.751Z,10.17
2018-09-10T03:23:07.012Z,9.95
2018-09-10T03:24:07.168Z,10.02
2018-09-10T03:25:06.983Z,10.02
2018-09-10T03:26:06.968Z,10.05
2018-09-10T03:27:06.703Z,10.07
2018-09-10T03:28:06.950Z,10.02
2018-09-10T03:29:06.939Z,10.14
2018-09-10T03:30:06.415Z,10.15
2018-09-10T03:31:06.668Z,10.05
2018-09-10T03:32:06.659Z,10.02
2018-09-10T03:33:06.394Z,10.03
2018-09-10T03:34:06.899Z,10.03
2018-09-10T03:35:06.621Z,10.11
2018-09-10T03:36:06.613Z,10.07
2018-09-10T03:37:06.609Z,10.03
2018-09-10T03:38:06.854Z,9.99
2018-09-10T03:39:06.328Z,10.07
2018-09-10T03:40:06.320Z,10.13
2018-09-10T03:41:06.567Z,10.02
2018-09-10T03:42:06.555Z,10.03
2018-09-10T03:43:06.544Z,10
2018-09-10T03:44:06.533Z,9.95
2018-09-10T03:45:06.526Z,9.98
2018-09-10T03:46:06.515Z,9.95
2018-09-10T03:47:06.513Z,9.92
2018-09-10T03:48:06.756Z,9.92
2018-09-10T03:49:06.229Z,9.89
2018-09-10T03:50:06.227Z,9.81
2018-09-10T03:51:06.464Z,9.88
2018-09-10T03:52:06.455Z,9.81
2018-09-10T03:53:06.709Z,9.75
2018-09-10T03:54:06.436Z,9.78
2018-09-10T03:55:06.426Z,9.72
2018-09-10T03:56:06.671Z,9.75
2018-09-10T03:57:06.662Z,9.64
2018-09-10T03:58:06.398Z,9.64
2018-09-10T03:59:06.386Z,9.72
2018-09-10T04:00:06.378Z,9.74
2018-09-10T04:01:06.366Z,9.74
2018-09-10T04:02:06.354Z,9.77
2018-09-10T04:03:06.096Z,9.75
2018-09-10T04:04:06.595Z,9.75
2018-09-10T04:05:06.584Z,9.81
2018-09-10T04:06:06.577Z,9.78
2018-09-10T04:07:06.572Z,9.85
2018-09-10T04:08:06.294Z,9.8
2018-09-10T04:09:06.287Z,9.81
2018-09-10T04:10:06.293Z,9.85
2018-09-10T04:11:06.265Z,9.88
2018-09-10T04:12:06.510Z,9.89
2018-09-10T04:13:06.251Z,9.89
2018-09-10T04:14:06.235Z,9.92
2018-09-10T04:15:06.227Z,9.95
2018-09-10T04:16:06.213Z,9.93
2018-09-10T04:17:06.265Z,9.95
2018-09-10T04:18:06.197Z,9.99
2018-09-10T04:19:05.951Z,9.9
2018-09-10T04:20:06.171Z,9.93
2018-09-10T04:21:06.429Z,9.96
2018-09-10T04:22:06.408Z,10
2018-09-10T04:23:06.141Z,9.98
2018-09-10T04:24:06.138Z,10.05
2018-09-10T04:25:06.124Z,9.99
2018-09-10T04:26:06.439Z,9.96
2018-09-10T04:27:06.356Z,10.08
2018-09-10T04:28:05.837Z,10.03
2018-09-10T04:29:05.824Z,10.1
2018-09-10T04:30:06.335Z,10.14
2018-09-10T04:31:06.332Z,10.17
2018-09-10T04:32:06.054Z,10.21
2018-09-10T04:33:06.042Z,10.29
2018-09-10T04:34:06.289Z,10.25
2018-09-10T04:35:06.026Z,10.25
2018-09-10T04:36:06.483Z,10.28
2018-09-10T04:37:06.004Z,10.29
2018-09-10T04:38:06.016Z,10.29
2018-09-10T04:39:05.988Z,10.31
2018-09-10T04:40:05.970Z,10.33
2018-09-10T04:41:05.966Z,10.28
2018-09-10T04:42:06.032Z,10.29
2018-09-10T04:43:06.202Z,10.2
2018-09-10T04:44:06.190Z,10.31
2018-09-10T04:45:05.665Z,10.31
2018-09-10T04:46:06.211Z,10.31
2018-09-10T04:47:05.645Z,10.33
2018-09-10T04:48:05.897Z,10.33
2018-09-10T04:49:05.885Z,10.29
2018-09-10T04:50:05.883Z,10.28
2018-09-10T04:51:05.896Z,10.36
2018-09-10T04:52:05.871Z,10.35
2018-09-10T04:53:06.110Z,10.29
2018-09-10T04:54:05.830Z,10.32
2018-09-10T04:55:06.083Z,10.32
2018-09-10T04:56:05.559Z,10.31
2018-09-10T04:57:05.805Z,10.28
2018-09-10T04:58:05.975Z,10.26
2018-09-10T04:59:06.044Z,10.26
2018-09-10T05:00:05.777Z,10.28
2018-09-10T05:01:05.777Z,10.32
2018-09-10T05:02:05.759Z,10.26
2018-09-10T05:03:06.002Z,10.26
2018-09-10T05:04:05.736Z,10.33
2018-09-10T05:05:05.729Z,10.36
2018-09-10T05:06:05.974Z,10.44
2018-09-10T05:07:05.972Z,10.41
2018-09-10T05:08:05.960Z,10.44
2018-09-10T05:09:05.950Z,10.54
2018-09-10T05:10:06.191Z,10.54
2018-09-10T05:11:05.676Z,10.51
2018-09-10T05:12:05.912Z,10.59
2018-09-10T05:13:05.656Z,10.55
2018-09-10T05:14:05.385Z,10.59
2018-09-10T05:15:05.638Z,10.67
2018-09-10T05:16:05.620Z,10.7
2018-09-10T05:17:05.873Z,10.65
2018-09-10T05:18:05.862Z,10.7
2018-09-10T05:19:05.855Z,10.8
2018-09-10T05:20:05.844Z,10.8
2018-09-10T05:21:05.828Z,10.84
2018-09-10T05:22:05.825Z,10.91
2018-09-10T05:23:05.556Z,10.91
2018-09-10T05:24:05.543Z,10.97
2018-09-10T05:25:05.795Z,10.98
2018-09-10T05:26:05.784Z,10.97
2018-09-10T05:27:05.771Z,11.05
2018-09-10T05:28:05.887Z,11
2018-09-10T05:29:05.508Z,11.1
2018-09-10T05:30:05.488Z,11.1
2018-09-10T05:31:05.485Z,11.12
2018-09-10T05:32:05.473Z,11.12
2018-09-10T05:33:05.726Z,11.21
2018-09-10T05:34:05.719Z,11.23
2018-09-10T05:35:05.694Z,11.34
2018-09-10T05:36:05.688Z,11.34
2018-09-10T05:37:05.685Z,11.41
2018-09-10T05:38:05.669Z,11.42
2018-09-10T05:39:05.662Z,11.43
2018-09-10T05:40:05.396Z,11.57
2018-09-10T05:41:05.707Z,11.57
2018-09-10T05:42:05.642Z,11.53
2018-09-10T05:43:05.637Z,11.66
2018-09-10T05:44:05.356Z,11.7
2018-09-10T05:45:05.609Z,11.81
2018-09-10T05:46:05.599Z,11.89
2018-09-10T05:47:05.590Z,11.95
2018-09-10T05:48:05.582Z,12.03
2018-09-10T05:49:05.573Z,12.11
2018-09-10T05:50:05.309Z,12.15
2018-09-10T05:51:05.555Z,12.2
2018-09-10T05:52:05.546Z,12.31
2018-09-10T05:53:05.574Z,12.4
2018-09-10T05:54:05.532Z,12.51
2018-09-10T05:55:05.261Z,12.56
2018-09-10T05:56:05.514Z,12.63
2018-09-10T05:57:05.500Z,12.74
2018-09-10T05:58:05.235Z,12.83
2018-09-10T05:59:05.485Z,12.89
2018-09-10T06:00:05.485Z,12.98
2018-09-10T06:01:05.214Z,13.03
2018-09-10T06:02:05.475Z,13.11
2018-09-10T06:03:05.449Z,13.16
2018-09-10T06:04:05.181Z,13.28
2018-09-10T06:05:04.921Z,13.29
2018-09-10T06:06:05.427Z,13.42
2018-09-10T06:07:05.432Z,13.48
2018-09-10T06:08:05.410Z,13.51
2018-09-10T06:09:05.402Z,13.44
2018-09-10T06:10:05.134Z,13.48
2018-09-10T06:11:05.382Z,13.53
2018-09-10T06:12:05.380Z,13.58
2018-09-10T06:13:05.368Z,13.54
2018-09-10T06:14:04.848Z,13.58
2018-09-10T06:15:04.846Z,13.63
2018-09-10T06:16:05.361Z,13.69
2018-09-10T06:17:05.353Z,13.63
2018-09-10T06:18:05.073Z,13.66
2018-09-10T06:19:05.332Z,13.51
2018-09-10T06:20:05.319Z,13.51
2018-09-10T06:21:05.308Z,13.57
2018-09-10T06:22:05.301Z,13.48
2018-09-10T06:23:05.287Z,13.44
2018-09-10T06:24:05.284Z,13.55
2018-09-10T06:25:05.279Z,13.5
2018-09-10T06:26:05.019Z,13.44
2018-09-10T06:27:05.008Z,13.37
2018-09-10T06:28:05.259Z,13.29
2018-09-10T06:29:04.990Z,13.27
2018-09-10T06:30:05.240Z,13.16
2018-09-10T06:31:04.977Z,13.28
2018-09-10T06:32:04.968Z,13.09
2018-09-10T06:33:05.216Z,13.14
2018-09-10T06:34:05.011Z,13.1
2018-09-10T06:35:05.219Z,13.09
2018-09-10T06:36:05.194Z,13.13
2018-09-10T06:37:05.023Z,13.1
2018-09-10T06:38:05.179Z,13.2
2018-09-10T06:39:04.914Z,13.24
2018-09-10T06:40:04.921Z,13.28
2018-09-10T06:41:05.165Z,13.19
2018-09-10T06:42:05.172Z,13.24
2018-09-10T06:43:05.190Z,13.29
2018-09-10T06:44:05.131Z,13.24
2018-09-10T06:45:05.129Z,13.37
2018-09-10T06:46:04.862Z,13.32
2018-09-10T06:47:05.114Z,13.42
2018-09-10T06:48:04.843Z,13.42
2018-09-10T06:49:04.848Z,13.55
2018-09-10T06:50:05.103Z,13.72
2018-09-10T06:51:05.079Z,13.78
2018-09-10T06:52:04.832Z,13.86
2018-09-10T06:53:05.065Z,13.95
2018-09-10T06:54:04.800Z,14.12
2018-09-10T06:55:04.798Z,14.3
2018-09-10T06:56:04.785Z,14.53
2018-09-10T06:57:05.042Z,14.8
2018-09-10T06:58:04.773Z,14.95
2018-09-10T06:59:04.766Z,15.08
2018-09-10T07:00:04.797Z,15.71
2018-09-10T07:01:04.755Z,16.74
2018-09-10T07:02:04.748Z,17.84
2018-09-10T07:03:04.738Z,18.69
2018-09-10T07:04:04.987Z,19.4
2018-09-10T07:05:04.726Z,19.52
2018-09-10T07:06:04.989Z,19.53
2018-09-10T07:07:04.979Z,19.28
2018-09-10T07:08:04.975Z,18.97
2018-09-10T07:09:04.958Z,18.81
2018-09-10T07:10:04.695Z,18.63
2018-09-10T07:11:04.946Z,18.45
2018-09-10T07:12:04.682Z,18.39
2018-09-10T07:13:05.135Z,18.31
2018-09-10T07:14:04.934Z,18.23
2018-09-10T07:15:04.678Z,18.42
2018-09-10T07:16:04.922Z,18.45
2018-09-10T07:17:04.665Z,18.53
2018-09-10T07:18:04.925Z,18.51
2018-09-10T07:19:05.114Z,18.53
2018-09-10T07:20:04.905Z,18.5
2018-09-10T07:21:04.893Z,18.34
2018-09-10T07:22:04.377Z,18.27
2018-09-10T07:23:04.625Z,18.17
2018-09-10T07:24:04.877Z,18.06
2018-09-10T07:25:04.874Z,18.14
2018-09-10T07:26:04.914Z,18.08
2018-09-10T07:27:04.863Z,18.01
2018-09-10T07:28:04.349Z,17.94
2018-09-10T07:29:04.863Z,17.88
2018-09-10T07:30:04.848Z,17.9
2018-09-10T07:31:04.844Z,17.92
2018-09-10T07:32:04.837Z,17.88
2018-09-10T07:33:04.840Z,17.86
2018-09-10T07:34:04.833Z,17.87
2018-09-10T07:35:04.827Z,17.94
2018-09-10T07:36:04.832Z,17.88
2018-09-10T07:37:04.830Z,17.86
2018-09-10T07:38:04.810Z,17.84
2018-09-10T07:39:04.808Z,17.94
2018-09-10T07:40:04.552Z,17.84
2018-09-10T07:41:04.541Z,17.96
2018-09-10T07:42:04.281Z,18.08
2018-09-10T07:43:04.796Z,18.19
2018-09-10T07:44:05.188Z,18.27
2018-09-10T07:45:04.524Z,18.21
2018-09-10T07:46:04.778Z,18.39
2018-09-10T07:47:04.777Z,18.51
2018-09-10T07:48:04.770Z,18.61
2018-09-10T07:49:05.022Z,18.65
2018-09-10T07:50:04.764Z,18.78
2018-09-10T07:51:04.248Z,18.89
2018-09-10T07:52:04.498Z,18.94
2018-09-10T07:53:04.753Z,18.9
2018-09-10T07:54:04.750Z,19
2018-09-10T07:55:04.750Z,19.17
2018-09-10T07:56:04.485Z,19.23
2018-09-10T07:57:04.483Z,19.28
2018-09-10T07:58:04.478Z,19.37
2018-09-10T07:59:04.736Z,19.46
2018-09-10T08:00:04.214Z,19.5
2018-09-10T08:01:04.722Z,19.52
2018-09-10T08:02:04.465Z,19.67
2018-09-10T08:03:04.251Z,19.8
2018-09-10T08:04:04.459Z,19.87
2018-09-10T08:05:04.460Z,19.87
2018-09-10T08:06:04.454Z,19.97
2018-09-10T08:07:04.702Z,20.01
2018-09-10T08:08:04.450Z,20.04
2018-09-10T08:09:04.811Z,20.12
2018-09-10T08:10:04.711Z,20.27
2018-09-10T08:11:04.440Z,20.27
2018-09-10T08:12:04.700Z,20.29
2018-09-10T08:13:04.465Z,20.46
2018-09-10T08:14:04.693Z,20.49
2018-09-10T08:15:04.440Z,20.58
2018-09-10T08:16:04.430Z,20.64
2018-09-10T08:17:04.427Z,20.71
2018-09-10T08:18:04.420Z,20.79
2018-09-10T08:19:04.420Z,20.91
2018-09-10T08:20:04.163Z,21
2018-09-10T08:21:04.674Z,21.13
2018-09-10T08:22:04.417Z,21.22
2018-09-10T08:23:04.418Z,21.36
2018-09-10T08:24:04.567Z,21.43
2018-09-10T08:25:04.438Z,21.41
2018-09-10T08:26:04.407Z,21.38
2018-09-10T08:27:04.402Z,21.48
2018-09-10T08:28:04.658Z,21.48
2018-09-10T08:29:04.406Z,21.64
2018-09-10T08:30:04.671Z,21.74
2018-09-10T08:31:04.147Z,21.94
2018-09-10T08:32:04.395Z,22.08
2018-09-10T08:33:04.653Z,22.33
2018-09-10T08:34:04.398Z,22.41
2018-09-10T08:35:04.658Z,22.39
2018-09-10T08:36:04.139Z,22.52
2018-09-10T08:37:04.392Z,22.41
2018-09-10T08:38:04.649Z,22.36
2018-09-10T08:39:04.390Z,22.27
2018-09-10T08:40:04.686Z,22.23
2018-09-10T08:41:04.384Z,22.27
2018-09-10T08:42:04.645Z,22.3
2018-09-10T08:43:04.765Z,22.36
2018-09-10T08:44:04.382Z,22.45
2018-09-10T08:45:04.647Z,22.42
2018-09-10T08:46:04.640Z,22.3
2018-09-10T08:47:04.639Z,22.39
2018-09-10T08:48:04.379Z,22.46
2018-09-10T08:49:04.654Z,22.41
2018-09-10T08:50:04.383Z,22.51
2018-09-10T08:51:04.380Z,22.59
2018-09-10T08:52:04.387Z,22.51
2018-09-10T08:53:04.637Z,22.45
2018-09-10T08:54:05.049Z,22.41
2018-09-10T08:55:04.855Z,22.54
2018-09-10T08:56:04.471Z,22.64
2018-09-10T08:57:04.381Z,22.7
2018-09-10T08:58:04.635Z,22.71
2018-09-10T08:59:04.631Z,22.75
2018-09-10T09:00:04.393Z,22.73
2018-09-10T09:01:04.632Z,22.76
2018-09-10T09:02:05.113Z,22.78
2018-09-10T09:03:04.375Z,22.66
2018-09-10T09:04:04.376Z,22.67
2018-09-10T09:05:04.377Z,22.71
2018-09-10T09:06:04.542Z,22.88
2018-09-10T09:07:04.634Z,23.01
2018-09-10T09:08:05.044Z,23.18
2018-09-10T09:09:04.376Z,23.35
2018-09-10T09:10:04.376Z,23.32
2018-09-10T09:11:04.376Z,23.4
2018-09-10T09:12:04.628Z,23.47
2018-09-10T09:13:04.379Z,23.38
2018-09-10T09:14:04.375Z,23.44
2018-09-10T09:15:04.627Z,23.26
2018-09-10T09:16:04.637Z,23.28
2018-09-10T09:17:04.641Z,23.29
2018-09-10T09:18:04.119Z,23.12
2018-09-10T09:19:04.122Z,23.03
2018-09-10T09:20:04.381Z,23.01
2018-09-10T09:21:04.629Z,23
2018-09-10T09:22:04.373Z,23.16
2018-09-10T09:23:04.798Z,23.29
2018-09-10T09:24:04.383Z,23.24
2018-09-10T09:25:04.630Z,23.26
2018-09-10T09:26:04.642Z,23.28
2018-09-10T09:27:04.637Z,23.41
2018-09-10T09:28:04.408Z,23.45
2018-09-10T09:29:04.377Z,23.52
2018-09-10T09:30:04.789Z,23.5
2018-09-10T09:31:04.376Z,23.5
2018-09-10T09:32:04.637Z,23.53
2018-09-10T09:33:04.381Z,23.62
2018-09-10T09:34:04.122Z,23.64
2018-09-10T09:35:04.385Z,23.67
2018-09-10T09:36:04.741Z,23.84
2018-09-10T09:37:04.642Z,23.93
2018-09-10T09:38:04.386Z,23.97
2018-09-10T09:39:04.644Z,23.93
2018-09-10T09:40:04.387Z,23.97
2018-09-10T09:41:04.126Z,23.94
2018-09-10T09:42:04.385Z,23.85
2018-09-10T09:43:04.674Z,23.85
2018-09-10T09:44:04.643Z,23.85
2018-09-10T09:45:04.646Z,23.81
2018-09-10T09:46:04.134Z,23.82
2018-09-10T09:47:04.389Z,23.89
2018-09-10T09:48:04.646Z,24
2018-09-10T09:49:04.137Z,24.11
2018-09-10T09:50:04.674Z,24.19
2018-09-10T09:51:04.738Z,24.27
2018-09-10T09:52:04.400Z,24.29
2018-09-10T09:53:04.657Z,24.34
2018-09-10T09:54:04.401Z,24.29
2018-09-10T09:55:04.398Z,24.37
2018-09-10T09:56:04.403Z,24.34
2018-09-10T09:57:04.399Z,24.34
2018-09-10T09:58:04.404Z,24.32
2018-09-10T09:59:04.396Z,24.29
2018-09-10T10:00:04.402Z,24.22
2018-09-10T10:01:04.407Z,24.18
2018-09-10T10:02:04.666Z,24.21
2018-09-10T10:03:04.406Z,24.18
2018-09-10T10:04:04.803Z,24.18
2018-09-10T10:05:04.407Z,24.07
2018-09-10T10:06:04.668Z,24.02
2018-09-10T10:07:04.409Z,24.02
2018-09-10T10:08:04.412Z,23.96
2018-09-10T10:09:04.674Z,23.92
2018-09-10T10:10:04.779Z,23.89
2018-09-10T10:11:04.449Z,23.79
2018-09-10T10:12:04.506Z,23.92
2018-09-10T10:13:04.421Z,23.7
2018-09-10T10:14:04.680Z,23.79
2018-09-10T10:15:04.421Z,23.74
2018-09-10T10:16:04.423Z,23.71
2018-09-10T10:17:04.421Z,23.72
2018-09-10T10:18:04.422Z,23.64
2018-09-10T10:19:04.421Z,23.63
2018-09-10T10:20:04.683Z,23.62
2018-09-10T10:21:04.426Z,23.79
2018-09-10T10:22:04.932Z,23.77
2018-09-10T10:23:04.427Z,23.64
2018-09-10T10:24:04.681Z,23.57
2018-09-10T10:25:04.441Z,23.55
2018-09-10T10:26:04.429Z,23.45
2018-09-10T10:27:04.430Z,23.55
2018-09-10T10:28:04.757Z,23.59
2018-09-10T10:29:04.433Z,23.62
2018-09-10T10:30:04.431Z,23.64
2018-09-10T10:31:04.690Z,23.7
2018-09-10T10:32:04.692Z,23.82
2018-09-10T10:33:04.176Z,24
2018-09-10T10:34:04.697Z,24.11
2018-09-10T10:35:04.694Z,24.26
2018-09-10T10:36:04.182Z,24.36
2018-09-10T10:37:04.692Z,24.54
2018-09-10T10:38:04.448Z,24.67
2018-09-10T10:39:04.799Z,24.64
2018-09-10T10:40:04.481Z,24.58
2018-09-10T10:41:04.455Z,24.56
2018-09-10T10:42:04.719Z,24.59
2018-09-10T10:43:04.702Z,24.54
2018-09-10T10:44:04.713Z,24.52
2018-09-10T10:45:04.707Z,24.56
2018-09-10T10:46:04.712Z,24.49
2018-09-10T10:47:04.707Z,24.45
2018-09-10T10:48:04.455Z,24.45
2018-09-10T10:49:04.707Z,24.44
2018-09-10T10:50:04.716Z,24.45
2018-09-10T10:51:04.457Z,24.54
2018-09-10T10:52:04.721Z,24.51
2018-09-10T10:53:04.714Z,24.66
2018-09-10T10:54:04.724Z,24.55
2018-09-10T10:55:04.461Z,24.63
2018-09-10T10:56:04.735Z,24.7
2018-09-10T10:57:04.465Z,24.7
2018-09-10T10:58:04.725Z,24.71
2018-09-10T10:59:04.465Z,24.7
2018-09-10T11:00:04.473Z,24.69
2018-09-10T11:01:04.213Z,24.59
2018-09-10T11:02:04.468Z,24.63
2018-09-10T11:03:04.726Z,24.51
2018-09-10T11:04:04.244Z,24.48
2018-09-10T11:05:04.475Z,24.45
2018-09-10T11:06:04.478Z,24.46
2018-09-10T11:07:04.479Z,24.56
2018-09-10T11:08:04.474Z,24.67
2018-09-10T11:09:04.224Z,24.75
2018-09-10T11:10:04.487Z,24.69
2018-09-10T11:11:04.480Z,24.71
2018-09-10T11:12:04.740Z,24.71
2018-09-10T11:13:04.484Z,24.75
2018-09-10T11:14:04.485Z,24.59
2018-09-10T11:15:04.490Z,24.52
2018-09-10T11:16:04.750Z,24.54
2018-09-10T11:17:04.747Z,24.58
2018-09-10T11:18:04.766Z,24.61
2018-09-10T11:19:04.236Z,24.56
2018-09-10T11:20:04.755Z,24.52
2018-09-10T11:21:04.498Z,24.45
2018-09-10T11:22:04.763Z,24.42
2018-09-10T11:23:04.243Z,24.39
2018-09-10T11:24:04.498Z,24.32
2018-09-10T11:25:04.505Z,24.29
2018-09-10T11:26:04.761Z,24.3
2018-09-10T11:27:04.765Z,24.34
2018-09-10T11:28:04.767Z,24.45
2018-09-10T11:29:04.761Z,24.46
2018-09-10T11:30:04.508Z,24.55
2018-09-10T11:31:04.513Z,24.66
2018-09-10T11:32:04.251Z,24.67
2018-09-10T11:33:04.775Z,24.82
2018-09-10T11:34:04.773Z,24.67
2018-09-10T11:35:04.254Z,24.69
2018-09-10T11:36:04.512Z,24.75
2018-09-10T11:37:04.519Z,24.89
2018-09-10T11:38:04.261Z,24.94
2018-09-10T11:39:04.784Z,24.89
2018-09-10T11:40:04.779Z,25.01
2018-09-10T11:41:04.524Z,24.96
2018-09-10T11:42:04.782Z,25.02
2018-09-10T11:43:04.520Z,24.96
2018-09-10T11:44:04.526Z,24.97
2018-09-10T11:45:04.784Z,24.97
2018-09-10T11:46:04.530Z,25.08
2018-09-10T11:47:04.797Z,25.05
2018-09-10T11:48:04.799Z,25.12
2018-09-10T11:49:04.802Z,25.14
2018-09-10T11:50:04.793Z,25.3
2018-09-10T11:51:04.796Z,25.37
2018-09-10T11:52:04.542Z,25.49
2018-09-10T11:53:04.793Z,25.45
2018-09-10T11:54:04.541Z,25.37
2018-09-10T11:55:04.803Z,25.32
2018-09-10T11:56:04.540Z,25.14
2018-09-10T11:57:04.806Z,25.09
2018-09-10T11:58:04.552Z,25.07
2018-09-10T11:59:04.805Z,24.97
2018-09-10T12:00:04.813Z,24.96
2018-09-10T12:01:04.553Z,24.8
2018-09-10T12:02:04.689Z,24.67
2018-09-10T12:03:04.563Z,24.56
2018-09-10T12:04:04.556Z,24.42
2018-09-10T12:05:04.847Z,24.32
2018-09-10T12:06:04.566Z,24.29
2018-09-10T12:07:04.567Z,24.21
2018-09-10T12:08:04.816Z,24.09
2018-09-10T12:09:04.828Z,24.07
2018-09-10T12:10:04.824Z,24.04
2018-09-10T12:11:04.569Z,23.93
2018-09-10T12:12:04.570Z,23.9
2018-09-10T12:13:04.571Z,23.96
2018-09-10T12:14:04.574Z,23.92
2018-09-10T12:15:04.832Z,23.97
2018-09-10T12:16:04.835Z,23.89
2018-09-10T12:17:04.846Z,24.02
2018-09-10T12:18:04.589Z,23.99
2018-09-10T12:19:04.838Z,24.03
2018-09-10T12:20:04.868Z,24.08
2018-09-10T12:21:04.323Z,24.18
2018-09-10T12:22:04.838Z,24.17
2018-09-10T12:23:04.839Z,24.18
2018-09-10T12:24:04.842Z,24.22
2018-09-10T12:25:04.842Z,24.34
2018-09-10T12:26:04.580Z,24.32
2018-09-10T12:27:04.844Z,24.29
2018-09-10T12:28:04.845Z,24.36
2018-09-10T12:29:04.845Z,24.26
2018-09-10T12:30:04.586Z,24.19
2018-09-10T12:31:04.592Z,24.24
2018-09-10T12:32:04.850Z,24.24
2018-09-10T12:33:04.848Z,24.19
2018-09-10T12:34:04.591Z,24.21
2018-09-10T12:35:04.847Z,24.21
2018-09-10T12:36:04.335Z,24.18
2018-09-10T12:37:04.600Z,24.29
2018-09-10T12:38:04.854Z,24.37
2018-09-10T12:39:04.605Z,24.37
2018-09-10T12:40:04.856Z,24.33
2018-09-10T12:41:04.342Z,24.3
2018-09-10T12:42:04.865Z,24.22
2018-09-10T12:43:04.862Z,24.26
2018-09-10T12:44:04.602Z,24.24
2018-09-10T12:45:04.867Z,24.18
2018-09-10T12:46:04.861Z,24.33
2018-09-10T12:47:04.601Z,24.21
2018-09-10T12:48:04.857Z,24.26
2018-09-10T12:49:04.873Z,24.26
2018-09-10T12:50:04.352Z,24.17
2018-09-10T12:51:04.349Z,24.12
2018-09-10T12:52:04.871Z,24.19
2018-09-10T12:53:04.610Z,24.19
2018-09-10T12:54:04.921Z,24.11
2018-09-10T12:55:04.611Z,24.09
2018-09-10T12:56:04.867Z,24.11
2018-09-10T12:57:04.359Z,24.15
2018-09-10T12:58:04.616Z,24.15